Time;durP1;ratioP1;P1;durP2;ratioP2;P2;SDS_P1;SDS_P2;PMS_P1;PMS_P2;Temp;Humidity;BMP_temperature;BMP_pressure;BME280_temperature;BME280_humidity;BME280_pressure;Samples;Min_cycle;Max_cycle;Signal;HPM_P1;HPM_P2
2024/01/05 00:00:42;;;;;;;39.75;26.92;;;4.90;99.90;;;;;;5112968;28;20208;-76
2024/01/05 00:03:09;;;;;;;42.58;28.88;;;4.90;99.90;;;;;;5091104;28;20082;-79
2024/01/05 00:05:39;;;;;;;44.17;29.80;;;4.80;99.90;;;;;;5108174;28;20028;-77
2024/01/05 00:08:06;;;;;;;45.53;30.48;;;4.80;99.90;;;;;;5093085;28;20085;-77
2024/01/05 00:10:34;;;;;;;76.90;49.22;;;4.90;99.90;;;;;;5095030;28;20160;-80
2024/01/05 00:13:01;;;;;;;78.10;47.20;;;5.00;99.90;;;;;;5112704;28;20374;-78
2024/01/05 00:15:29;;;;;;;183.90;101.75;;;4.90;99.90;;;;;;5113839;28;20367;-78
2024/01/05 00:18:06;;;;;;;243.07;124.65;;;4.90;99.90;;;;;;5111023;28;20085;-77
2024/01/05 00:20:34;;;;;;;70.65;49.85;;;4.90;99.90;;;;;;5092232;28;20386;-77
2024/01/05 00:23:01;;;;;;;59.63;40.40;;;4.90;99.90;;;;;;5093108;28;20128;-77
2024/01/05 00:25:28;;;;;;;53.42;36.53;;;4.80;99.90;;;;;;5092901;28;20115;-77
2024/01/05 00:27:55;;;;;;;58.22;35.83;;;4.70;99.90;;;;;;5109305;28;20359;-78
2024/01/05 00:30:23;;;;;;;59.40;37.63;;;4.60;99.90;;;;;;5108549;27;20046;-77
2024/01/05 00:32:50;;;;;;;54.17;37.22;;;4.50;99.90;;;;;;5110949;27;20364;-77
2024/01/05 00:35:20;;;;;;;54.05;36.28;;;4.40;99.90;;;;;;5110913;28;20643;-77
2024/01/05 00:37:48;;;;;;;58.83;37.13;;;4.30;99.90;;;;;;5111482;28;20373;-76
2024/01/05 00:40:15;;;;;;;55.83;36.47;;;4.30;99.90;;;;;;5113050;28;20482;-76
2024/01/05 00:42:42;;;;;;;52.85;34.50;;;4.30;99.90;;;;;;5111591;28;20031;-77
2024/01/05 00:45:10;;;;;;;54.67;36.38;;;4.40;99.90;;;;;;5113003;28;20032;-77
2024/01/05 00:47:44;;;;;;;48.30;34.45;;;4.30;99.90;;;;;;5112528;28;20039;-78
2024/01/05 00:50:12;;;;;;;50.30;32.97;;;4.30;99.90;;;;;;5112343;28;20477;-79
2024/01/05 00:52:39;;;;;;;47.80;33.42;;;4.40;99.90;;;;;;5110495;28;20032;-77
2024/01/05 00:55:07;;;;;;;45.42;31.73;;;4.50;99.90;;;;;;5106422;28;20036;-75
2024/01/05 00:57:34;;;;;;;48.00;33.17;;;4.60;99.90;;;;;;5108581;28;20382;-77
2024/01/05 01:00:04;;;;;;;54.00;33.63;;;4.50;99.90;;;;;;5104373;28;20085;-75
2024/01/05 01:02:31;;;;;;;48.65;34.80;;;4.20;99.90;;;;;;5094323;28;20363;-77
2024/01/05 01:04:59;;;;;;;55.28;32.25;;;4.10;99.90;;;;;;5109189;28;20067;-77
2024/01/05 01:07:27;;;;;;;45.70;32.85;;;4.20;99.90;;;;;;5111287;28;20031;-77
2024/01/05 01:09:54;;;;;;;53.33;32.40;;;4.20;99.90;;;;;;5108464;28;20149;-76
2024/01/05 01:12:21;;;;;;;45.42;32.05;;;4.20;99.90;;;;;;5108131;28;20032;-78
2024/01/05 01:14:48;;;;;;;44.60;31.55;;;4.20;99.90;;;;;;5110644;28;20079;-76
2024/01/05 01:17:15;;;;;;;48.75;33.03;;;4.10;99.90;;;;;;5089418;28;20042;-75
2024/01/05 01:19:43;;;;;;;47.95;32.20;;;4.20;99.90;;;;;;5070070;28;20109;-76
2024/01/05 01:22:10;;;;;;;47.40;33.90;;;4.20;99.90;;;;;;5087381;28;20152;-76
2024/01/05 01:24:37;;;;;;;50.25;33.55;;;4.00;99.90;;;;;;5087558;28;20449;-76
2024/01/05 01:27:04;;;;;;;54.22;36.13;;;3.90;99.90;;;;;;5090956;28;20116;-77
2024/01/05 01:29:32;;;;;;;51.20;35.60;;;3.90;99.90;;;;;;5091539;28;20040;-75
2024/01/05 01:32:36;;;;;;;56.75;35.83;;;3.80;99.90;;;;;;5073310;28;20538;-76
2024/01/05 01:35:04;;;;;;;62.00;39.20;;;3.50;99.90;;;;;;5089184;28;20111;-75
2024/01/05 01:37:31;;;;;;;62.30;39.75;;;3.50;99.90;;;;;;5091248;28;20028;-76
2024/01/05 01:39:58;;;;;;;55.42;40.25;;;3.30;99.90;;;;;;5087165;28;20103;-76
2024/01/05 01:42:26;;;;;;;67.35;43.45;;;3.50;99.90;;;;;;5086212;28;20032;-76
2024/01/05 01:44:53;;;;;;;62.97;41.67;;;3.60;99.90;;;;;;5087347;28;20032;-76
2024/01/05 01:47:20;;;;;;;62.55;41.70;;;3.60;99.90;;;;;;5090768;28;20036;-75
2024/01/05 01:49:48;;;;;;;58.45;40.10;;;3.30;99.90;;;;;;5090784;28;20076;-76
2024/01/05 01:52:16;;;;;;;57.72;39.65;;;3.30;99.90;;;;;;5090973;28;20470;-76
2024/01/05 01:54:44;;;;;;;59.10;34.13;;;3.30;99.90;;;;;;5089788;28;20101;-75
2024/01/05 01:57:14;;;;;;;46.80;33.15;;;3.30;99.90;;;;;;5083093;28;20109;-74
2024/01/05 01:59:41;;;;;;;56.38;35.13;;;3.30;99.90;;;;;;5085709;28;20036;-74
2024/01/05 02:02:10;;;;;;;53.30;35.80;;;3.40;99.90;;;;;;5089796;28;20378;-74
2024/01/05 02:04:38;;;;;;;50.08;36.78;;;3.40;99.90;;;;;;5090562;28;20040;-74
2024/01/05 02:07:07;;;;;;;51.90;36.13;;;3.20;99.90;;;;;;5090588;28;20075;-74
2024/01/05 02:09:35;;;;;;;49.63;32.25;;;3.30;99.90;;;;;;5086435;28;20090;-73
2024/01/05 02:12:02;;;;;;;50.55;31.80;;;3.20;99.90;;;;;;5090407;28;20036;-74
2024/01/05 02:14:30;;;;;;;41.70;29.25;;;3.10;99.90;;;;;;5085533;28;20029;-74
2024/01/05 02:17:30;;;;;;;39.35;27.00;;;3.30;99.90;;;;;;5074609;28;20054;-73
2024/01/05 02:19:58;;;;;;;40.15;24.58;;;3.60;99.90;;;;;;5072161;28;20050;-73
2024/01/05 02:22:30;;;;;;;34.00;25.27;;;3.60;99.90;;;;;;5086498;28;20386;-75
2024/01/05 02:24:58;;;;;;;41.45;25.40;;;3.60;99.90;;;;;;5087316;28;20036;-73
2024/01/05 02:27:26;;;;;;;33.95;24.73;;;3.60;99.90;;;;;;5086488;28;20115;-75
2024/01/05 02:29:53;;;;;;;42.10;27.50;;;3.70;99.90;;;;;;5089999;28;20043;-76
2024/01/05 02:32:21;;;;;;;42.92;27.38;;;3.80;99.90;;;;;;5090916;28;20055;-75
2024/01/05 02:34:48;;;;;;;39.70;28.13;;;3.60;99.90;;;;;;5090321;28;20139;-76
2024/01/05 02:37:15;;;;;;;43.88;29.08;;;3.60;99.90;;;;;;5085936;28;20043;-74
2024/01/05 02:40:02;;;;;;;40.72;28.05;;;3.60;99.90;;;;;;5090508;28;20043;-75
2024/01/05 02:42:29;;;;;;;37.47;28.98;;;3.60;99.90;;;;;;5089819;28;20036;-77
2024/01/05 02:44:57;;;;;;;42.03;28.40;;;3.50;99.90;;;;;;5086971;28;20039;-76
2024/01/05 02:47:24;;;;;;;40.85;27.17;;;3.60;99.90;;;;;;5090169;28;20069;-76
2024/01/05 02:49:51;;;;;;;45.30;27.73;;;3.80;99.90;;;;;;5090109;28;20077;-77
2024/01/05 02:52:19;;;;;;;41.83;25.73;;;3.70;99.90;;;;;;5084084;28;20040;-77
2024/01/05 02:54:46;;;;;;;39.17;25.75;;;3.50;99.90;;;;;;5085937;28;20331;-78
2024/01/05 02:57:13;;;;;;;42.22;28.00;;;3.70;99.90;;;;;;5089410;28;20063;-77
2024/01/05 02:59:41;;;;;;;42.15;26.50;;;3.80;99.90;;;;;;5086370;28;20108;-77
2024/01/05 03:02:08;;;;;;;35.63;24.63;;;3.80;99.90;;;;;;5085377;28;20052;-78
2024/01/05 03:04:35;;;;;;;40.00;24.95;;;3.80;99.90;;;;;;5089938;28;20044;-77
2024/01/05 03:07:03;;;;;;;39.45;25.75;;;4.00;99.90;;;;;;5085355;28;20062;-75
2024/01/05 03:09:30;;;;;;;37.58;25.30;;;4.00;99.90;;;;;;5090398;28;20031;-76
2024/01/05 03:11:57;;;;;;;34.53;23.30;;;4.00;99.90;;;;;;5081713;28;20112;-74
2024/01/05 03:14:24;;;;;;;33.50;23.10;;;4.00;99.90;;;;;;5084784;28;20032;-75
2024/01/05 03:16:52;;;;;;;50.30;24.25;;;4.00;99.90;;;;;;5110281;27;20482;-76
2024/01/05 03:19:19;;;;;;;30.50;21.40;;;3.70;99.90;;;;;;5111552;28;20182;-75
2024/01/05 03:21:46;;;;;;;32.50;22.33;;;3.60;99.90;;;;;;5106275;28;20559;-75
2024/01/05 03:24:15;;;;;;;33.95;22.33;;;3.80;99.90;;;;;;5108918;28;20115;-76
2024/01/05 03:26:45;;;;;;;32.72;22.23;;;4.00;99.90;;;;;;5107134;28;20444;-75
2024/01/05 03:29:12;;;;;;;;;;;4.00;99.90;;;;;;5111026;28;20038;-75
2024/01/05 03:31:42;;;;;;;27.77;20.38;;;4.00;99.90;;;;;;5101638;28;20313;-75
2024/01/05 03:34:11;;;;;;;31.48;21.80;;;3.90;99.90;;;;;;5110258;28;20038;-75
2024/01/05 03:36:39;;;;;;;32.75;20.95;;;3.90;99.90;;;;;;5113280;28;20122;-75
2024/01/05 03:39:24;;;;;;;31.92;21.02;;;3.90;99.90;;;;;;5108306;28;20031;-75
2024/01/05 03:41:52;;;;;;;36.72;20.77;;;3.70;99.90;;;;;;5093294;28;20049;-75
2024/01/05 03:44:22;;;;;;;30.10;21.08;;;3.70;99.90;;;;;;5112043;28;20038;-75
2024/01/05 03:46:50;;;;;;;31.77;20.70;;;3.70;99.90;;;;;;5113695;28;20039;-77
2024/01/05 03:49:18;;;;;;;29.95;19.45;;;3.60;99.90;;;;;;5109255;28;20159;-74
2024/01/05 03:51:45;;;;;;;27.67;19.40;;;3.60;99.90;;;;;;5109429;28;20046;-75
2024/01/05 03:54:12;;;;;;;30.00;19.42;;;3.60;99.90;;;;;;5110513;28;20042;-75
2024/01/05 03:56:48;;;;;;;33.60;19.75;;;3.60;99.90;;;;;;5112317;28;20375;-75
2024/01/05 03:59:15;;;;;;;33.45;19.63;;;3.50;99.90;;;;;;5107364;28;20039;-76
2024/01/05 04:01:46;;;;;;;30.15;20.92;;;3.20;99.90;;;;;;5112220;28;20035;-73
2024/01/05 04:04:14;;;;;;;35.58;22.20;;;3.30;99.90;;;;;;5115470;28;20462;-73
2024/01/05 04:06:42;;;;;;;35.22;21.02;;;3.40;99.90;;;;;;5112217;28;20548;-74
2024/01/05 04:09:10;;;;;;;33.08;22.55;;;3.30;99.90;;;;;;5110051;28;20038;-73
2024/01/05 04:11:38;;;;;;;27.15;18.80;;;3.30;99.90;;;;;;5111305;28;20458;-73
2024/01/05 04:14:06;;;;;;;31.02;19.25;;;3.50;99.90;;;;;;5106118;28;20405;-74
2024/01/05 04:16:34;;;;;;;33.17;20.88;;;3.50;99.90;;;;;;5096357;28;20118;-73
2024/01/05 04:19:02;;;;;;;28.95;19.38;;;3.30;99.90;;;;;;5075872;28;20047;-74
2024/01/05 04:21:30;;;;;;;27.52;19.88;;;3.30;99.90;;;;;;5102995;28;20050;-75
2024/01/05 04:23:58;;;;;;;33.60;20.50;;;3.50;99.90;;;;;;5106616;28;20035;-77
2024/01/05 04:26:26;;;;;;;25.83;18.65;;;3.70;99.90;;;;;;5088138;28;20121;-78
2024/01/05 04:28:53;;;;;;;28.40;18.92;;;3.80;99.90;;;;;;5095706;28;20038;-78
2024/01/05 04:31:21;;;;;;;31.77;20.58;;;3.80;99.90;;;;;;5107486;28;20040;-79
2024/01/05 04:33:48;;;;;;;26.05;19.15;;;3.80;99.90;;;;;;5108693;28;20089;-76
2024/01/05 04:36:16;;;;;;;26.95;20.25;;;3.80;99.90;;;;;;5100881;28;20119;-76
2024/01/05 04:38:44;;;;;;;29.58;19.70;;;3.60;99.90;;;;;;5105955;28;20043;-76
2024/01/05 04:41:15;;;;;;;32.13;20.05;;;3.50;99.90;;;;;;5085835;28;20474;-77
2024/01/05 04:43:44;;;;;;;26.45;18.90;;;3.30;99.90;;;;;;5099522;28;20352;-75
2024/01/05 04:46:11;;;;;;;27.33;20.25;;;3.40;99.90;;;;;;5083627;28;20042;-77
2024/01/05 04:48:39;;;;;;;29.80;19.67;;;3.50;99.90;;;;;;5094314;28;20052;-76
2024/01/05 04:51:07;;;;;;;26.17;19.58;;;3.60;99.90;;;;;;5101903;28;20060;-80
2024/01/05 04:53:34;;;;;;;27.90;18.17;;;3.60;99.90;;;;;;5108488;28;20039;-80
2024/01/05 04:56:03;;;;;;;26.40;17.55;;;3.60;99.90;;;;;;5109967;28;20054;-76
2024/01/05 04:58:30;;;;;;;26.55;17.27;;;3.40;99.90;;;;;;5091392;28;20036;-77
2024/01/05 05:00:57;;;;;;;27.50;17.92;;;3.50;99.90;;;;;;5098654;28;20048;-77
2024/01/05 05:03:26;;;;;;;21.35;17.15;;;3.20;99.90;;;;;;5110220;28;20035;-76
2024/01/05 05:05:54;;;;;;;23.17;15.95;;;3.20;99.90;;;;;;5101659;28;20052;-75
2024/01/05 05:08:21;;;;;;;21.15;16.08;;;3.30;99.90;;;;;;5103519;28;20352;-77
2024/01/05 05:10:49;;;;;;;25.70;16.95;;;3.40;99.90;;;;;;5105683;28;20146;-76
2024/01/05 05:13:16;;;;;;;26.08;17.17;;;3.30;99.90;;;;;;5106898;28;20432;-76
2024/01/05 05:15:44;;;;;;;23.60;16.88;;;3.20;99.90;;;;;;5101332;28;20394;-76
2024/01/05 05:18:12;;;;;;;25.05;17.10;;;3.20;99.90;;;;;;5083897;28;20127;-75
2024/01/05 05:20:40;;;;;;;22.88;17.35;;;3.20;99.90;;;;;;5103038;28;20130;-75
2024/01/05 05:23:07;;;;;;;29.67;16.50;;;3.10;99.90;;;;;;5080746;28;20535;-77
2024/01/05 05:25:34;;;;;;;29.10;17.08;;;3.20;99.90;;;;;;5099937;28;20042;-78
2024/01/05 05:28:02;;;;;;;23.45;16.25;;;3.30;99.90;;;;;;5096185;28;20055;-75
2024/01/05 05:30:29;;;;;;;23.33;15.30;;;3.30;99.90;;;;;;5101232;28;20118;-77
2024/01/05 05:32:56;;;;;;;26.58;17.08;;;3.40;99.90;;;;;;5100152;28;20907;-75
2024/01/05 05:35:24;;;;;;;23.10;16.48;;;3.50;99.90;;;;;;5102555;28;20093;-78
2024/01/05 05:37:51;;;;;;;29.48;17.10;;;3.50;99.90;;;;;;5097978;28;20032;-75
2024/01/05 05:40:19;;;;;;;24.17;16.67;;;3.50;99.90;;;;;;5098905;28;20133;-77
2024/01/05 05:42:46;;;;;;;25.40;17.10;;;3.50;99.90;;;;;;5099581;28;20059;-76
2024/01/05 05:45:13;;;;;;;22.80;16.20;;;3.50;99.90;;;;;;5094704;28;20036;-76
2024/01/05 05:47:41;;;;;;;27.65;15.93;;;3.30;99.90;;;;;;5099311;28;20062;-77
2024/01/05 05:50:08;;;;;;;24.25;16.35;;;3.20;99.90;;;;;;5101091;28;20035;-74
2024/01/05 05:52:36;;;;;;;26.15;15.75;;;3.20;99.90;;;;;;5096515;28;20035;-76
2024/01/05 05:55:05;;;;;;;24.17;16.63;;;3.40;99.90;;;;;;5100696;28;20624;-75
2024/01/05 05:57:33;;;;;;;28.20;17.13;;;3.60;99.90;;;;;;5100252;28;20031;-75
2024/01/05 06:00:00;;;;;;;28.25;17.65;;;3.60;99.90;;;;;;5099069;28;20028;-74
2024/01/05 06:02:28;;;;;;;25.85;16.73;;;3.50;99.90;;;;;;5097674;28;20510;-76
2024/01/05 06:04:55;;;;;;;24.85;18.40;;;3.10;99.90;;;;;;5101537;28;20062;-75
2024/01/05 06:07:25;;;;;;;26.15;17.10;;;3.30;99.90;;;;;;5098053;28;20467;-75
2024/01/05 06:09:52;;;;;;;29.58;17.88;;;3.40;99.90;;;;;;5100669;28;20667;-75
2024/01/05 06:12:19;;;;;;;22.92;16.90;;;3.50;99.90;;;;;;5083726;28;20043;-75
2024/01/05 06:14:47;;;;;;;27.67;18.02;;;3.60;99.90;;;;;;5099450;28;20036;-75
2024/01/05 06:17:14;;;;;;;50.58;25.33;;;3.60;99.90;;;;;;5101038;28;20071;-78
2024/01/05 06:19:43;;;;;;;222.90;106.80;;;3.20;99.90;;;;;;5100945;28;20047;-79
2024/01/05 06:22:11;;;;;;;152.45;80.03;;;3.00;99.90;;;;;;5097871;28;20032;-73
2024/01/05 06:24:38;;;;;;;75.13;44.00;;;3.20;99.90;;;;;;5095302;28;20512;-76
2024/01/05 06:27:05;;;;;;;78.10;41.95;;;3.70;99.90;;;;;;5101413;28;20031;-75
2024/01/05 06:29:33;;;;;;;349.15;163.57;;;3.90;99.90;;;;;;5098903;28;20445;-76
2024/01/05 06:32:01;;;;;;;56.22;37.10;;;4.00;99.90;;;;;;5081530;28;20043;-75
2024/01/05 06:34:29;;;;;;;29.92;21.73;;;4.10;99.90;;;;;;5084294;28;20170;-77
2024/01/05 06:36:57;;;;;;;27.20;19.73;;;3.70;99.90;;;;;;5080645;28;20040;-74
2024/01/05 06:39:25;;;;;;;32.85;19.10;;;3.80;99.90;;;;;;5095776;28;20390;-74
2024/01/05 06:41:52;;;;;;;30.65;16.83;;;3.70;99.90;;;;;;5079772;28;20032;-78
2024/01/05 06:44:19;;;;;;;28.80;18.55;;;3.60;99.90;;;;;;5095693;28;20055;-77
2024/01/05 06:46:46;;;;;;;36.70;19.13;;;3.50;99.90;;;;;;5097096;28;20075;-77
2024/01/05 06:49:14;;;;;;;29.67;18.75;;;3.60;99.90;;;;;;5098780;28;20064;-76
2024/01/05 06:51:41;;;;;;;33.67;18.73;;;3.70;99.90;;;;;;5097733;28;20433;-75
2024/01/05 06:54:12;;;;;;;30.15;17.15;;;3.60;99.90;;;;;;5097873;28;20102;-80
2024/01/05 06:56:42;;;;;;;27.48;18.17;;;3.50;99.90;;;;;;5097191;28;20032;-78
2024/01/05 06:59:09;;;;;;;27.95;19.33;;;3.30;99.90;;;;;;5098481;28;20036;-80
2024/01/05 07:01:36;;;;;;;33.70;18.10;;;3.40;99.90;;;;;;5101190;28;20032;-77
2024/01/05 07:04:04;;;;;;;28.77;18.55;;;3.50;99.90;;;;;;5101809;28;20030;-81
2024/01/05 07:06:31;;;;;;;34.53;21.98;;;3.60;99.90;;;;;;5083448;28;20032;-82
2024/01/05 07:09:00;;;;;;;33.40;19.98;;;3.70;99.90;;;;;;5099447;28;20063;-79
2024/01/05 07:11:27;;;;;;;35.30;21.80;;;3.70;99.90;;;;;;5101486;28;20028;-82
2024/01/05 07:13:54;;;;;;;46.65;25.67;;;3.90;99.90;;;;;;5099263;28;20039;-82
2024/01/05 07:16:22;;;;;;;54.72;32.70;;;4.30;99.90;;;;;;5097804;28;20044;-74
2024/01/05 07:18:50;;;;;;;39.05;27.10;;;4.50;99.90;;;;;;5078468;28;20075;-80
2024/01/05 07:21:18;;;;;;;44.17;25.13;;;4.20;99.90;;;;;;5097952;28;20427;-78
2024/01/05 07:23:46;;;;;;;40.53;25.38;;;4.00;99.90;;;;;;5100468;28;20042;-81
2024/01/05 07:26:18;;;;;;;37.60;23.10;;;3.80;99.90;;;;;;5104598;28;20101;-82
2024/01/05 07:28:45;;;;;;;39.53;21.98;;;3.80;99.90;;;;;;5097112;28;20063;-82
2024/01/05 07:31:13;;;;;;;34.08;21.77;;;3.80;99.90;;;;;;5099547;28;20126;-78
2024/01/05 07:33:50;;;;;;;36.25;21.20;;;3.80;99.90;;;;;;5085130;28;20040;-81
2024/01/05 07:36:17;;;;;;;37.25;20.05;;;3.90;99.90;;;;;;5101101;28;20035;-82
2024/01/05 07:38:45;;;;;;;32.28;19.10;;;3.90;99.90;;;;;;5098004;28;20386;-76
2024/01/05 07:41:16;;;;;;;30.40;18.17;;;4.00;99.90;;;;;;5100767;28;20037;-77
2024/01/05 07:43:44;;;;;;;30.23;17.90;;;3.90;99.90;;;;;;5096904;28;20035;-79
2024/01/05 07:46:12;;;;;;;32.70;18.85;;;3.80;99.90;;;;;;5081233;28;20055;-80
2024/01/05 07:48:40;;;;;;;32.60;19.05;;;3.70;99.90;;;;;;5099524;28;20035;-77
2024/01/05 07:51:10;;;;;;;29.95;17.67;;;3.70;99.90;;;;;;5096138;28;20030;-81
2024/01/05 07:53:38;;;;;;;29.83;18.70;;;3.60;99.90;;;;;;5096526;28;20097;-81
2024/01/05 07:56:07;;;;;;;36.47;18.00;;;3.60;99.90;;;;;;5099845;28;20035;-80
2024/01/05 07:58:34;;;;;;;33.70;19.25;;;3.60;99.90;;;;;;5096876;28;20065;-81
2024/01/05 08:01:01;;;;;;;31.50;19.35;;;3.70;99.90;;;;;;5080134;28;20063;-82
2024/01/05 08:03:29;;;;;;;27.77;18.23;;;3.80;99.90;;;;;;5104150;28;20391;-81
2024/01/05 08:05:57;;;;;;;33.25;18.65;;;3.90;99.90;;;;;;5104003;28;20051;-82
2024/01/05 08:08:24;;;;;;;29.27;19.15;;;3.90;99.90;;;;;;5101937;28;20032;-81
2024/01/05 08:10:51;;;;;;;31.10;18.98;;;4.00;99.90;;;;;;5084421;28;20090;-81
2024/01/05 08:13:23;;;;;;;30.23;18.92;;;4.00;99.90;;;;;;5101184;28;20047;-78
2024/01/05 08:15:50;;;;;;;26.48;18.02;;;4.00;99.90;;;;;;5064109;28;20386;-77
2024/01/05 08:18:18;;;;;;;33.05;19.98;;;4.00;99.90;;;;;;5057674;28;20135;-80
2024/01/05 08:20:46;;;;;;;33.90;19.25;;;4.00;99.90;;;;;;5092240;28;20088;-77
2024/01/05 08:23:13;;;;;;;32.35;20.13;;;4.00;99.90;;;;;;5074550;28;20096;-76
2024/01/05 08:25:40;;;;;;;29.73;19.25;;;4.00;99.90;;;;;;5083719;28;20055;-74
2024/01/05 08:28:08;;;;;;;35.33;20.25;;;3.90;99.90;;;;;;5077338;28;20032;-79
2024/01/05 08:30:36;;;;;;;36.20;20.55;;;4.00;99.90;;;;;;5096028;28;20043;-75
2024/01/05 08:33:03;;;;;;;41.63;20.77;;;3.90;99.90;;;;;;5077734;28;20115;-74
2024/01/05 08:35:31;;;;;;;35.88;20.42;;;3.70;99.90;;;;;;5080814;28;20024;-82
2024/01/05 08:37:58;;;;;;;35.53;20.60;;;3.90;99.90;;;;;;5086418;28;20044;-78
2024/01/05 08:40:28;;;;;;;35.88;20.92;;;4.00;99.90;;;;;;5086347;28;20165;-77
2024/01/05 08:42:55;;;;;;;36.63;21.43;;;4.20;99.90;;;;;;5057980;28;20036;-80
2024/01/05 08:45:23;;;;;;;36.03;20.88;;;4.20;99.90;;;;;;5075007;28;20126;-78
2024/01/05 08:48:08;;;;;;;42.83;22.23;;;4.20;99.90;;;;;;5074803;28;20044;-78
2024/01/05 08:50:36;;;;;;;37.42;20.00;;;4.10;99.90;;;;;;5096130;28;20032;-75
2024/01/05 08:53:04;;;;;;;38.28;22.08;;;4.40;99.90;;;;;;5095703;28;20024;-80
2024/01/05 08:55:32;;;;;;;43.40;25.25;;;4.50;99.90;;;;;;5085822;28;20051;-81
2024/01/05 08:57:59;;;;;;;42.67;24.08;;;4.50;99.90;;;;;;5090984;28;20107;-81
2024/01/05 09:00:26;;;;;;;41.38;22.48;;;4.70;99.90;;;;;;5097098;28;20028;-81
2024/01/05 09:02:55;;;;;;;37.80;21.83;;;4.70;99.90;;;;;;5079858;28;20028;-80
2024/01/05 09:05:23;;;;;;;39.20;21.17;;;4.70;99.90;;;;;;5075778;28;20043;-81
2024/01/05 09:07:50;;;;;;;31.98;20.55;;;4.70;99.90;;;;;;5093307;28;20425;-76
2024/01/05 09:10:18;;;;;;;38.05;22.27;;;4.80;99.90;;;;;;5091453;28;20036;-80
2024/01/05 09:12:45;;;;;;;39.88;21.63;;;4.80;99.90;;;;;;5094521;28;20071;-80
2024/01/05 09:15:12;;;;;;;33.58;21.35;;;5.00;99.90;;;;;;5096430;27;20044;-81
2024/01/05 09:17:42;;;;;;;36.85;21.23;;;5.20;99.90;;;;;;5118769;27;20125;-80
2024/01/05 09:20:12;;;;;;;39.13;22.02;;;5.20;99.90;;;;;;5111965;27;20038;-81
2024/01/05 09:22:39;;;;;;;38.85;21.92;;;5.30;99.90;;;;;;5111907;27;20040;-82
2024/01/05 09:25:08;;;;;;;35.70;21.55;;;4.80;99.90;;;;;;5105514;27;20298;-78
2024/01/05 09:27:38;;;;;;;38.28;21.83;;;5.00;99.90;;;;;;5108200;28;20471;-79
2024/01/05 09:30:07;;;;;;;38.47;21.83;;;5.20;99.90;;;;;;5110478;27;20368;-80
2024/01/05 09:32:35;;;;;;;37.78;20.63;;;5.20;99.90;;;;;;5090681;28;20059;-80
2024/01/05 09:35:04;;;;;;;37.90;22.50;;;5.30;99.90;;;;;;5113723;27;20036;-81
2024/01/05 09:37:36;;;;;;;40.83;22.90;;;5.40;99.90;;;;;;5107725;27;20031;-85
2024/01/05 09:40:24;;;;;;;53.60;22.35;;;5.40;99.90;;;;;;5095258;28;20047;-80
2024/01/05 09:43:12;;;;;;;43.50;22.80;;;4.90;99.90;;;;;;5098978;27;20055;-80
2024/01/05 09:45:59;;;;;;;35.47;21.50;;;4.70;99.90;;;;;;5092709;28;20796;-75
2024/01/05 09:48:46;;;;;;;40.28;22.45;;;4.70;99.90;;;;;;5091299;28;20044;-73
2024/01/05 09:51:40;;;;;;;40.92;22.58;;;4.90;99.90;;;;;;5091729;27;20095;-82
2024/01/05 09:54:28;;;;;;;39.97;22.63;;;5.00;99.90;;;;;;5097520;28;20116;-80
2024/01/05 09:57:17;;;;;;;41.15;24.63;;;5.10;99.90;;;;;;5092494;28;20225;-80
2024/01/05 10:00:07;;;;;;;41.80;23.38;;;5.30;99.90;;;;;;5097792;27;20050;-81
2024/01/05 10:02:59;;;;;;;45.90;24.92;;;5.40;99.90;;;;;;5096457;27;20040;-78
2024/01/05 10:05:53;;;;;;;50.35;30.13;;;5.40;99.90;;;;;;5097739;27;20043;-71
2024/01/05 10:08:40;;;;;;;46.75;24.60;;;5.50;99.90;;;;;;5100320;27;20397;-72
2024/01/05 10:11:32;;;;;;;45.92;24.98;;;5.40;99.90;;;;;;5090630;28;20126;-80
2024/01/05 10:14:27;;;;;;;45.25;24.20;;;5.40;99.90;;;;;;5087484;28;20447;-81
2024/01/05 10:17:17;;;;;;;48.53;25.75;;;5.20;99.90;;;;;;5095819;27;20040;-83
2024/01/05 10:20:16;;;;;;;44.03;24.90;;;5.20;99.90;;;;;;5099805;28;20070;-85
2024/01/05 10:23:04;;;;;;;46.50;24.63;;;5.30;99.90;;;;;;5076515;28;20049;-77
2024/01/05 10:25:52;;;;;;;45.65;24.52;;;5.40;99.90;;;;;;5092115;28;20603;-83
2024/01/05 10:28:39;;;;;;;45.55;25.63;;;5.40;99.90;;;;;;5098636;28;20115;-74
2024/01/05 10:31:26;;;;;;;44.33;26.00;;;5.30;99.90;;;;;;5096473;28;20089;-80
2024/01/05 10:34:13;;;;;;;43.85;25.35;;;5.20;99.90;;;;;;5070851;28;20035;-79
2024/01/05 10:37:05;;;;;;;45.25;24.70;;;5.10;99.90;;;;;;5097188;27;20198;-78
2024/01/05 10:39:53;;;;;;;45.42;25.67;;;5.10;99.90;;;;;;5094378;27;20088;-82
2024/01/05 10:42:41;;;;;;;49.00;26.48;;;4.80;99.90;;;;;;5098068;28;20047;-74
2024/01/05 10:45:29;;;;;;;46.22;25.90;;;5.00;99.90;;;;;;5095356;28;20118;-80
2024/01/05 10:48:17;;;;;;;46.65;26.50;;;5.10;99.90;;;;;;5090773;28;20048;-77
2024/01/05 10:51:06;;;;;;;53.28;27.15;;;5.40;99.90;;;;;;5093610;28;20360;-79
2024/01/05 10:53:56;;;;;;;51.33;26.58;;;5.60;99.90;;;;;;5097642;27;20035;-71
2024/01/05 10:56:44;;;;;;;56.45;27.80;;;5.70;99.90;;;;;;5083059;28;20485;-77
2024/01/05 10:59:32;;;;;;;45.10;26.38;;;5.70;99.90;;;;;;5079425;28;20124;-85
2024/01/05 11:02:40;;;;;;;44.97;26.15;;;5.60;99.90;;;;;;5078905;28;20500;-77
2024/01/05 11:05:30;;;;;;;50.45;27.35;;;5.60;99.90;;;;;;5092348;28;20065;-78
2024/01/05 11:08:23;;;;;;;55.10;28.90;;;5.60;99.90;;;;;;5093947;28;20474;-78
2024/01/05 11:11:36;;;;;;;51.03;27.10;;;5.70;99.90;;;;;;5106156;28;20105;-72
2024/01/05 11:15:00;;;;;;;58.65;32.53;;;5.60;99.90;;;;;;5105951;27;20092;-79
2024/01/05 11:18:08;;;;;;;63.85;32.50;;;5.30;99.90;;;;;;5088960;28;20044;-73
2024/01/05 11:21:16;;;;;;;56.05;29.58;;;5.40;99.90;;;;;;5110701;27;20067;-76
2024/01/05 11:24:05;;;;;;;53.80;29.20;;;5.60;99.90;;;;;;5092216;28;20043;-76
2024/01/05 11:26:56;;;;;;;64.97;29.80;;;5.50;99.90;;;;;;5092290;28;20039;-70
2024/01/05 11:29:53;;;;;;;62.60;31.27;;;5.50;99.90;;;;;;5079244;28;20083;-71
2024/01/05 11:32:46;;;;;;;65.45;32.72;;;5.40;99.90;;;;;;5093029;28;20058;-76
2024/01/05 11:35:45;;;;;;;58.13;29.80;;;5.60;99.90;;;;;;5085893;27;20040;-78
2024/01/05 11:38:33;;;;;;;60.55;31.35;;;5.40;99.90;;;;;;5096648;27;20076;-74
2024/01/05 11:41:21;;;;;;;70.10;33.25;;;4.70;99.90;;;;;;5095837;28;20044;-69
2024/01/05 11:44:32;;;;;;;65.78;32.05;;;4.70;99.90;;;;;;5096633;27;20032;-75
2024/01/05 11:47:41;;;;;;;66.50;30.88;;;5.20;99.90;;;;;;5097730;27;20132;-72
2024/01/05 11:50:40;;;;;;;65.00;30.73;;;5.10;99.90;;;;;;5090038;28;20036;-73
2024/01/05 11:53:30;;;;;;;63.55;32.65;;;5.00;99.90;;;;;;5103241;27;20032;-71
2024/01/05 11:56:21;;;;;;;69.13;31.80;;;5.30;99.90;;;;;;5092752;27;20825;-72
2024/01/05 11:59:13;;;;;;;75.90;33.00;;;5.30;99.90;;;;;;5100649;28;20050;-74
2024/01/05 12:02:00;;;;;;;66.28;32.83;;;5.10;99.90;;;;;;5092638;27;20152;-79
2024/01/05 12:04:48;;;;;;;66.65;33.40;;;5.20;99.90;;;;;;5087998;27;20100;-77
2024/01/05 12:07:36;;;;;;;73.28;31.88;;;5.40;99.90;;;;;;5105862;27;20042;-76
2024/01/05 12:10:25;;;;;;;70.30;31.83;;;5.60;99.90;;;;;;5091874;28;20482;-79
2024/01/05 12:13:22;;;;;;;69.25;33.30;;;5.60;99.90;;;;;;5097801;27;20048;-70
2024/01/05 12:16:09;;;;;;;72.03;34.17;;;5.60;99.90;;;;;;5110024;27;20482;-76
2024/01/05 12:18:58;;;;;;;75.65;35.25;;;5.40;99.90;;;;;;5100382;27;20050;-75
2024/01/05 12:21:52;;;;;;;69.25;33.75;;;5.10;99.90;;;;;;5101763;27;20055;-71
2024/01/05 12:24:40;;;;;;;72.70;35.35;;;5.30;99.90;;;;;;5080755;28;20054;-75
2024/01/05 12:27:36;;;;;;;73.32;35.22;;;5.70;99.90;;;;;;5096637;28;20032;-76
2024/01/05 12:30:24;;;;;;;72.05;36.03;;;5.90;99.90;;;;;;5090297;27;20043;-72
2024/01/05 12:33:13;;;;;;;83.88;35.83;;;5.70;99.90;;;;;;5093980;28;20043;-71
2024/01/05 12:36:01;;;;;;;89.55;38.42;;;6.00;99.90;;;;;;5081755;28;20043;-73
2024/01/05 12:38:49;;;;;;;86.95;38.22;;;6.50;99.90;;;;;;5092106;28;20476;-77
2024/01/05 12:41:39;;;;;;;84.20;37.50;;;6.70;99.90;;;;;;5096199;28;20086;-77
2024/01/05 12:44:27;;;;;;;89.72;39.72;;;6.70;99.90;;;;;;5095675;28;20083;-72
2024/01/05 12:47:27;;;;;;;79.18;39.53;;;6.80;99.90;;;;;;5093181;27;20040;-77
2024/01/05 12:50:28;;;;;;;80.63;37.28;;;6.80;99.90;;;;;;5081705;27;20039;-78
2024/01/05 12:53:17;;;;;;;72.47;35.92;;;6.80;99.90;;;;;;5098554;28;20416;-78
2024/01/05 12:56:13;;;;;;;75.60;36.10;;;6.70;99.90;;;;;;5095370;28;20074;-77
2024/01/05 12:59:02;;;;;;;72.50;37.13;;;6.50;99.90;;;;;;5082840;28;20126;-76
2024/01/05 13:02:00;;;;;;;70.30;36.67;;;6.30;99.90;;;;;;5095506;28;20054;-75
2024/01/05 13:04:47;;;;;;;74.00;36.65;;;6.00;99.90;;;;;;5098041;27;20126;-76
2024/01/05 13:07:35;;;;;;;71.45;37.00;;;6.20;99.90;;;;;;5092349;28;20039;-79
2024/01/05 13:10:23;;;;;;;71.70;34.83;;;6.30;99.90;;;;;;5099611;28;20024;-76